Strona główna
METAR-TAF:

METAR-TAF

Lotnisko :

Port lotniczy Numea-La Tontouta

Numea-La Tontouta, Nowa Kaledonia

Szerokość geograficzna: 22-01S, Długość geograficzna: 166-13E, wysokość: 16 m

Aktualna obserwacja pogody

Raport powstał 25 minut temu, godzina 01:00 UTC
Wiatr 10 kt od południe, zmienny między południowo-południowy wschód i południowo-południowy zachód
Temperatura 25°C
Wilgotność 50%
Ciśnienie 1014 hPa
Widzialność 10 km lub więcej
Brak chmur poniżej 1500 m i brak chmur cumulonimbus

METAR: NWWW 200100Z AUTO 18010KT 150V210 CAVOK 25/14 Q1014 NOSIG

czas: 12:25 (01:25 UTC)

Prognoza

Raport powstał 2 godziny i 25 minut temu, godzina 23:00 UTC
Prognoza ważna od 20 godzina 00 UTC do 20 godzina 24 UTC
Wiatr 10 kt od południowo-południowy wschód
Widzialność 10 km lub więcej
Mało chmury na wysokości 5000 ft
Stopniowe zmiany
od 20 godzina 06 UTC do 20 godzina 08 UTC
Wiatr 2 kt z kierunków zmiennych

TAF: NWWW 192300Z 2000/2024 16010KT 9999 FEW050 BECMG 2006/2008 VRB02KT

Obserwacja i prognoza pogody dla ponad 4000 lotnisk (raport METAR i TAF).

Dostępne stacje oznaczono żółtymi i czerwonymi punktami na mapie.

Najedź kursorem aby zobaczyć nazwę stacji.

Kliknij aby zobaczyć obserwacje i prognozy pogody.

Aby zmienić mapę: kliknij na zielony przycisk z czarnym krzyżykiem, aby powiększyć; na zielony przycisk z myślnikiem, aby pomniejszyć; na zielone strzałki, aby przejść do map sąsiednich.


METAR-TAF: